Weather

*Note: Some stations are located near irrigated fields and may also report irrigation

Forrest Carberry Carberry North Wawanesa Glenboro Glenora Treherne Gladstone Portage East High Bluff Elm Creek Carman Winkler Kuhl Farm Morris St.Adolphe Steinbach Selkirk Macdonald Shilo Rivers Somerset Reinland Altona Starbuck St.Pierre Winkler




Steinbach - Historical Weather Data
Date Max Temp (°C) Min Temp (°C) Avg Temp (°C) Rain (mm) Avg RH (%)
7/23/2017 27.9 12.3 19.9 0.0 80.0
7/22/2017 21.8 15.7 18.2 2.6 93.0
7/21/2017 25.0 15.0 19.8 0.0 81.0
7/20/2017 25.6 11.4 19.1 0.0 77.0
7/19/2017 24.7 9.6 17.4 3.0 84.0
7/18/2017 25.6 12.6 18.7 0.0 65.0
7/17/2017 27.2 14.9 22.9 1.8 70.0
7/16/2017 27.5 9.0 19.7 0.0 71.0
7/15/2017 24.0 12.5 20.1 0.0 75.0
7/14/2017 26.2 9.8 19.4 0.0 73.0
7/13/2017 25.4 6.4 16.9 0.0 72.0
7/12/2017 18.6 10.7 16.0 9.7 94.0
7/11/2017 23.3 16.8 19.2 8.9 94.0
7/10/2017 28.1 9.8 20.7 0.0 69.0
7/9/2017 27.9 14.9 20.8 0.0 73.0
7/8/2017 28.2 11.2 20.8 0.0 68.0
7/7/2017 25.5 11.3 19.1 1.9 71.0
7/6/2017 26.9 15.2 21.4 0.0 67.0
7/5/2017 30.1 15.4 22.9 0.0 67.0
7/4/2017 30.9 19.1 23.1 3.6 76.0
7/3/2017 25.7 11.7 19.5 0.0 76.0
7/2/2017 23.6 9.6 16.2 0.0 83.0
7/1/2017 21.4 10.8 15.9 2.9 79.0
6/30/2017 20.0 11.6 16.3 0.0 81.0
6/29/2017 26.4 10.3 18.1 6.5 83.0
6/28/2017 19.7 13.4 17.6 6.6 84.0
6/27/2017 25.3 11.1 18.6 0.0 52.0
6/26/2017 22.7 7.3 15.5 0.0 62.0
6/25/2017 17.7 4.9 11.7 0.7 76.0
6/24/2017 14.2 8.2 10.7 4.0 98.0
6/23/2017 14.5 10.0 13.1 1.3 89.0
6/22/2017 21.9 10.8 15.9 0.1 65.0
6/21/2017 19.4 12.7 15.6 8.7 83.0
6/20/2017 22.9 9.3 16.4 1.1 71.0
6/19/2017 20.9 7.8 14.5 0.0 72.0
6/18/2017 16.9 11.4 13.7 0.5 88.0
6/17/2017 17.2 9.7 13.6 0.0 89.0
6/16/2017 19.0 12.7 15.4 0.0 86.0
6/15/2017 19.2 12.3 15.7 0.7 82.0
6/14/2017 24.6 14.3 18.5 6.7 84.0
6/13/2017 24.7 8.4 16.7 20.9 67.0
6/12/2017 23.3 10.6 17.2 0.0 56.0
6/11/2017 28.1 11.6 20.1 0.3 58.0
6/10/2017 25.5 13.4 19.6 1.5 74.0
6/9/2017 26.5 11.4 19.6 6.5 65.0
6/8/2017 29.0 11.4 20.4 0.0 64.0
6/7/2017 25.5 14.5 19.5 0.1 76.0
6/6/2017 29.8 17.7 22.8 0.0 52.0
6/5/2017 28.0 12.5 21.1 0.0 67.0
6/4/2017 25.4 12.5 19.3 0.0 67.0
6/3/2017 27.2 17.9 22.7 0.0 58.0
6/2/2017 32.1 15.6 24.2 0.8 43.0
6/1/2017 27.6 18.6 24.5 0.0 30.0
5/31/2017 23.8 4.8 15.1 0.0 53.0
5/30/2017 18.6 5.8 11.3 0.0 69.0
5/29/2017 11.3 5.9 8.1 1.5 89.0
5/28/2017 14.7 7.9 11.0 2.2 91.0
5/27/2017 22.0 7.2 15.8 0.0 57.0
5/26/2017 19.8 11.0 16.2 0.0 61.0
5/25/2017 18.9 8.9 14.6 0.0 64.0
5/24/2017 20.3 6.8 14.9 0.0 53.0
5/23/2017 21.3 6.8 13.5 0.0 64.0
5/22/2017 11.8 7.1 8.8 2.3 94.0
5/21/2017 10.3 5.5 7.6 12.5 96.0
5/20/2017 17.5 4.7 11.1 0.0 47.0
5/19/2017 20.2 -2.9 10.4 0.0 48.0
5/18/2017 14.6 0.6 7.2 0.0 57.0
5/17/2017 12.9 5.7 8.5 0.0 84.0
5/16/2017 14.6 7.8 12.2 6.7 79.0
5/15/2017 24.8 6.3 16.9 0.0 43.0
5/14/2017 21.6 9.6 15.2 0.0 50.0
5/13/2017 19.2 2.1 11.7 0.0 51.0
5/12/2017 15.9 -0.8 7.9 0.0 60.0
5/11/2017 16.6 -1.8 7.8 0.0 62.0
5/10/2017 12.6 4.2 8.1 0.0 58.0
5/9/2017 17.6 5.7 11.3 0.0 66.0
5/8/2017 18.1 6.8 12.6 1.2 53.0
5/7/2017 18.2 8.1 12.4 0.0 38.0
5/6/2017 19.4 2.2 11.4 0.0 55.0
5/5/2017 23.3 7.5 16.5 0.0 41.0
5/4/2017 21.7 4.0 13.7 0.0 53.0
5/3/2017 18.8 4.9 12.5 0.3 60.0
5/2/2017 20.1 2.5 12.4 0.0 50.0
5/1/2017 17.7 -2.3 10.1 0.0 47.0